Terminal Aerodrome Forecast
Issued by NWS Cleveland, OH

Home | Current Version | Previous Version | Text Only | Print | Product List | Glossary Off
Versions: 1 2 3 4 5 6 7 8 9 10 11 12 13 14 15 16 17 18 19 20 21

000
FTUS41 KCLE 211700
TAFCAK
TAF
KCAK 211724Z 2118/2218 23005KT P6SM BKN250
     FM220300 22008KT P6SM OVC100
     FM220500 23008KT P6SM -SHRA OVC015
     FM220900 23009KT P6SM -SHRA OVC007
     FM221200 30012KT P6SM OVC015
     FM221600 32010G20KT P6SM OVC015
     FM221700 32010G20KT P6SM SCT250=

USA.gov is the U.S. government's official web portal to all federal, state and local government web resources and services.